Time;durP1;ratioP1;P1;durP2;ratioP2;P2;SDS_P1;SDS_P2;PMS_P1;PMS_P2;Temp;Humidity;BMP_temperature;BMP_pressure;BME280_temperature;BME280_humidity;BME280_pressure;Samples;Min_cycle;Max_cycle;Signal;HPM_P1;HPM_P2
2023/12/14 00:03:51;;;;;;;5.03;3.17;;;;;;;8.62;96.65;98119.22;7274809;40;20284;31
2023/12/14 00:09:28;;;;;;;8.80;3.73;;;;;;;8.65;96.29;98127.75;7217724;40;21502;31
2023/12/14 00:14:48;;;;;;;8.80;3.90;;;;;;;8.70;96.46;98146.84;7193747;40;20239;31
2023/12/14 00:20:09;;;;;;;6.83;4.17;;;;;;;8.59;96.12;98147.28;7218737;40;20652;31
2023/12/14 00:25:44;;;;;;;7.03;3.73;;;;;;;8.58;96.92;98149.13;7197018;40;20243;31
2023/12/14 00:31:04;;;;;;;7.90;4.65;;;;;;;8.64;96.66;98152.97;7147330;40;20259;31
2023/12/14 00:36:22;;;;;;;6.10;4.13;;;;;;;8.65;96.98;98157.28;7197738;40;20239;31
2023/12/14 00:41:58;;;;;;;5.23;3.47;;;;;;;8.61;96.41;98164.03;7216953;40;20251;31
2023/12/14 00:47:19;;;;;;;5.05;3.50;;;;;;;8.55;96.66;98171.00;7202405;40;20709;31
2023/12/14 00:52:39;;;;;;;3.87;3.40;;;;;;;8.62;96.91;98183.69;7196237;40;21417;31
2023/12/14 00:58:16;;;;;;;7.87;3.33;;;;;;;8.60;96.36;98187.37;7214496;40;20260;31
2023/12/14 01:03:33;;;;;;;5.03;3.13;;;;;;;8.66;97.07;98203.78;7181591;40;20844;31
2023/12/14 01:08:54;;;;;;;7.40;4.77;;;;;;;8.68;96.69;98217.91;7225483;40;20288;31
2023/12/14 01:14:28;;;;;;;5.70;4.50;;;;;;;8.66;95.70;98217.22;7253246;40;20343;31
2023/12/14 01:20:03;;;;;;;6.40;4.07;;;;;;;8.62;96.75;98222.12;7250987;39;20235;31
2023/12/14 01:25:23;;;;;;;6.80;4.40;;;;;;;8.65;96.49;98231.66;7257017;40;20241;31
2023/12/14 01:31:00;;;;;;;6.20;3.85;;;;;;;8.57;97.14;98241.47;7237585;40;20235;31
2023/12/14 01:36:38;;;;;;;7.33;4.17;;;;;;;8.58;97.03;98250.34;7186262;40;21526;31
2023/12/14 01:41:58;;;;;;;8.20;4.20;;;;;;;8.64;96.75;98255.03;7204574;40;20246;31
2023/12/14 01:47:35;;;;;;;5.30;3.70;;;;;;;8.60;96.47;98267.09;7217183;40;20297;31
2023/12/14 01:52:51;;;;;;;11.03;4.00;;;;;;;8.65;97.06;98280.84;7065747;39;20272;31
2023/12/14 01:58:12;;;;;;;5.90;3.90;;;;;;;8.69;97.05;98284.03;7282157;39;20314;31
2023/12/14 02:03:49;;;;;;;7.25;4.35;;;;;;;8.65;96.20;98288.06;7295706;40;20236;31
2023/12/14 02:09:24;;;;;;;8.20;4.30;;;;;;;8.65;96.83;98286.22;7277276;40;20246;31
2023/12/14 02:14:59;;;;;;;5.50;3.93;;;;;;;8.66;96.43;98290.59;7219725;40;20259;31
2023/12/14 02:20:35;;;;;;;6.40;4.30;;;;;;;8.64;97.37;98298.00;7155654;40;20718;31
2023/12/14 02:26:11;;;;;;;7.25;4.70;;;;;;;8.59;97.17;98301.22;7172831;40;20675;31
2023/12/14 02:31:31;;;;;;;7.30;5.40;;;;;;;8.63;97.36;98311.59;7175271;40;20242;31
2023/12/14 02:36:53;;;;;;;11.97;5.03;;;;;;;8.61;97.08;98325.19;7170754;40;20323;31
2023/12/14 02:42:29;;;;;;;6.47;4.50;;;;;;;8.58;96.21;98330.94;7197724;40;20245;31
2023/12/14 02:47:51;;;;;;;9.00;5.10;;;;;;;8.62;96.97;98337.63;7250293;40;20248;31
2023/12/14 02:53:25;;;;;;;8.55;5.55;;;;;;;8.56;96.18;98344.53;7224474;40;20242;31
2023/12/14 02:59:01;;;;;;;8.77;5.67;;;;;;;8.55;96.10;98348.25;7199366;40;20383;31
2023/12/14 03:04:36;;;;;;;8.10;6.10;;;;;;;8.56;96.71;98349.91;7187618;40;20317;31
2023/12/14 03:09:56;;;;;;;8.45;6.15;;;;;;;8.61;96.62;98360.13;7165397;40;20375;31
2023/12/14 03:15:33;;;;;;;15.60;10.05;;;;;;;8.54;97.00;98367.22;7216339;40;20280;31
2023/12/14 03:21:08;;;;;;;10.70;8.10;;;;;;;8.54;96.25;98369.87;7202478;40;20243;31
2023/12/14 03:26:43;;;;;;;9.45;7.25;;;;;;;8.56;97.16;98394.72;7176207;40;20385;31
2023/12/14 03:32:18;;;;;;;10.35;7.75;;;;;;;8.58;97.30;98403.44;7131006;40;20243;31
2023/12/14 03:37:53;;;;;;;12.13;8.03;;;;;;;8.59;96.86;98414.03;7138170;40;20750;31
2023/12/14 03:43:13;;;;;;;10.53;7.47;;;;;;;8.66;97.39;98424.91;7156990;40;20238;31
2023/12/14 03:48:47;;;;;;;11.00;8.13;;;;;;;8.64;96.84;98426.94;7203210;40;20241;31
2023/12/14 03:54:07;;;;;;;12.55;8.93;;;;;;;8.67;97.11;98431.94;7189437;40;21433;31
2023/12/14 03:59:27;;;;;;;11.90;7.20;;;;;;;8.70;96.42;98438.81;7197827;40;20254;31
2023/12/14 04:05:01;;;;;;;10.55;6.50;;;;;;;8.68;97.14;98451.59;7197782;40;20418;31
2023/12/14 04:10:21;;;;;;;8.40;6.40;;;;;;;8.69;97.26;98459.47;7201530;40;20242;31
2023/12/14 04:15:42;;;;;;;8.25;6.10;;;;;;;8.65;96.25;98463.50;7260547;40;20346;31
2023/12/14 04:21:20;;;;;;;9.30;6.37;;;;;;;8.58;97.07;98473.28;7236082;40;20441;31
2023/12/14 04:26:40;;;;;;;7.37;5.70;;;;;;;8.65;97.29;98484.16;7213427;40;20624;31
2023/12/14 04:31:57;;;;;;;8.60;5.70;;;;;;;8.65;97.14;98493.06;7255240;40;20626;31
2023/12/14 04:37:35;;;;;;;6.13;5.03;;;;;;;8.63;96.59;98503.16;7267383;40;20266;31
2023/12/14 04:43:09;;;;;;;6.80;4.95;;;;;;;8.63;97.03;98515.75;7240288;40;20382;31
2023/12/14 04:48:44;;;;;;;8.70;5.15;;;;;;;8.61;96.90;98521.28;7203891;40;20246;31
2023/12/14 04:54:20;;;;;;;8.80;5.60;;;;;;;8.63;96.30;98530.00;7211343;40;20614;31
2023/12/14 04:59:56;;;;;;;9.45;5.55;;;;;;;8.63;96.72;98537.22;7228803;40;20593;31
2023/12/14 05:05:31;;;;;;;7.20;4.90;;;;;;;8.59;96.70;98544.78;7189682;40;20243;31
2023/12/14 05:11:03;;;;;;;9.20;5.10;;;;;;;8.57;96.88;98552.16;7178610;40;20380;31
2023/12/14 05:16:39;;;;;;;5.93;4.90;;;;;;;8.51;96.94;98558.25;7203879;40;20274;31
2023/12/14 05:21:59;;;;;;;7.77;5.30;;;;;;;8.51;97.50;98580.53;7185386;40;20674;31
2023/12/14 05:27:35;;;;;;;6.63;4.87;;;;;;;8.48;96.64;98594.31;7218366;40;20242;31
2023/12/14 05:32:56;;;;;;;5.32;4.32;;;;;;;8.50;97.13;98596.84;7214696;40;20250;31
2023/12/14 05:38:31;;;;;;;8.10;4.60;;;;;;;8.54;96.69;98612.44;7245545;40;20253;31
2023/12/14 05:44:07;;;;;;;6.10;4.23;;;;;;;8.56;96.53;98617.62;7226473;40;20382;31
2023/12/14 05:49:28;;;;;;;6.67;4.33;;;;;;;8.60;96.68;98627.88;7198315;40;20277;31
2023/12/14 05:54:49;;;;;;;5.17;3.80;;;;;;;8.54;96.84;98627.72;7199122;40;20249;31
2023/12/14 06:00:26;;;;;;;4.70;3.80;;;;;;;8.49;96.56;98635.44;7192742;40;20250;31
2023/12/14 06:05:47;;;;;;;4.97;3.90;;;;;;;8.52;96.34;98651.22;7152930;40;20246;31
2023/12/14 06:11:22;;;;;;;8.53;4.33;;;;;;;8.46;96.26;98658.13;7140481;40;20310;31
2023/12/14 06:16:57;;;;;;;5.97;4.27;;;;;;;8.44;96.28;98675.37;7144014;40;20354;31
2023/12/14 06:22:31;;;;;;;7.77;5.40;;;;;;;8.46;96.39;98689.50;7174546;40;20246;31
2023/12/14 06:27:50;;;;;;;6.93;5.60;;;;;;;8.46;96.82;98705.59;7196526;40;20260;31
2023/12/14 06:33:26;;;;;;;9.37;5.63;;;;;;;8.43;96.40;98712.13;7178895;40;20292;31
2023/12/14 06:38:47;;;;;;;6.87;5.03;;;;;;;8.45;96.62;98722.72;7144355;40;20254;31
2023/12/14 06:44:09;;;;;;;7.45;4.20;;;;;;;8.42;96.81;98736.47;7187929;40;20247;31
2023/12/14 06:49:43;;;;;;;4.63;4.13;;;;;;;8.32;96.21;98741.16;7173031;40;20340;31
2023/12/14 06:55:17;;;;;;;6.60;4.70;;;;;;;8.23;95.48;98750.16;7138650;40;20627;31
2023/12/14 07:00:53;;;;;;;5.30;4.40;;;;;;;8.18;95.73;98749.78;7185893;40;20258;31
2023/12/14 07:06:23;;;;;;;11.70;6.60;;;;;;;8.14;96.79;98762.69;7188232;40;20250;31
2023/12/14 07:11:43;;;;;;;12.87;6.63;;;;;;;8.19;96.64;98768.44;7195697;40;20242;31
2023/12/14 07:17:03;;;;;;;20.07;14.97;;;;;;;8.19;96.78;98781.84;7271277;40;20241;31
2023/12/14 07:22:40;;;;;;;10.30;7.70;;;;;;;8.20;96.60;98802.34;7208087;40;20400;31
2023/12/14 07:28:00;;;;;;;11.07;7.70;;;;;;;8.18;96.48;98803.47;7137970;40;20794;31
2023/12/14 07:33:36;;;;;;;8.83;6.90;;;;;;;8.18;97.13;98816.91;7167022;40;20242;31
2023/12/14 07:39:12;;;;;;;7.20;5.40;;;;;;;8.14;95.95;98827.13;7178165;40;20246;31
2023/12/14 07:44:48;;;;;;;8.33;5.00;;;;;;;8.22;97.10;98842.41;7183976;40;20241;31
2023/12/14 07:50:23;;;;;;;8.82;4.62;;;;;;;8.26;96.92;98855.34;7236684;40;20676;31
2023/12/14 07:55:58;;;;;;;5.05;3.80;;;;;;;8.25;96.71;98861.72;7176440;40;20298;31
2023/12/14 08:01:32;;;;;;;5.07;3.80;;;;;;;8.29;96.93;98867.66;7164288;40;20242;31
2023/12/14 08:07:07;;;;;;;6.80;4.60;;;;;;;8.32;96.98;98876.25;7157918;40;20309;31
2023/12/14 08:12:42;;;;;;;7.50;4.33;;;;;;;8.33;96.17;98890.50;7145903;40;20339;31
2023/12/14 08:18:01;;;;;;;7.17;4.13;;;;;;;8.38;96.58;98896.25;6912201;40;20395;31
2023/12/14 08:23:36;;;;;;;8.25;3.90;;;;;;;8.42;96.99;98919.09;7182295;40;20280;31
2023/12/14 08:29:09;;;;;;;9.60;3.70;;;;;;;8.43;96.53;98934.19;7159677;40;20538;31
2023/12/14 08:34:29;;;;;;;5.25;3.40;;;;;;;8.49;96.50;98941.63;7178430;40;20415;31
2023/12/14 08:39:50;;;;;;;5.20;3.50;;;;;;;8.51;96.64;98959.25;7184973;40;20347;31
2023/12/14 08:45:27;;;;;;;5.47;3.57;;;;;;;8.51;96.71;98951.19;7236023;40;20447;31
2023/12/14 08:51:02;;;;;;;3.70;3.20;;;;;;;8.54;96.69;98964.31;7207223;40;20249;31
2023/12/14 08:56:34;;;;;;;6.00;3.37;;;;;;;8.59;96.54;98990.69;7158787;40;21422;31
2023/12/14 09:02:10;;;;;;;4.53;3.50;;;;;;;8.63;96.12;98996.59;7147118;40;20318;31
2023/12/14 09:07:45;;;;;;;5.37;4.63;;;;;;;8.66;96.47;99010.53;7146756;40;21384;31
2023/12/14 09:13:20;;;;;;;7.00;4.50;;;;;;;8.70;96.24;99019.13;7149587;40;20258;31
2023/12/14 09:18:56;;;;;;;6.65;4.55;;;;;;;8.69;96.28;99029.03;7090267;40;20607;31
2023/12/14 09:24:31;;;;;;;6.30;4.13;;;;;;;8.75;96.17;99044.53;7102022;40;20490;31
2023/12/14 09:29:51;;;;;;;12.30;6.70;;;;;;;8.78;96.17;99054.94;7142972;40;20349;31
2023/12/14 09:35:29;;;;;;;7.93;5.80;;;;;;;8.78;95.58;99075.59;7116720;41;20259;31
2023/12/14 09:40:49;;;;;;;5.80;4.80;;;;;;;8.82;95.93;99077.81;7189554;40;20243;31
2023/12/14 09:46:25;;;;;;;8.70;5.30;;;;;;;8.81;95.87;99086.03;7220298;40;20232;31
2023/12/14 09:52:01;;;;;;;8.00;5.00;;;;;;;8.85;95.75;99087.41;7177248;40;20235;31
2023/12/14 09:57:34;;;;;;;7.20;5.00;;;;;;;8.87;95.30;99098.84;7175649;40;20276;31
2023/12/14 10:03:09;;;;;;;7.60;5.00;;;;;;;8.87;95.71;99101.53;7148207;40;20244;31
2023/12/14 10:08:45;;;;;;;7.80;5.10;;;;;;;8.91;95.50;99111.78;7221408;40;20238;31
2023/12/14 10:14:24;;;;;;;7.07;5.67;;;;;;;8.94;95.31;99114.19;7218005;40;20242;31
2023/12/14 10:20:00;;;;;;;9.40;6.80;;;;;;;8.99;95.22;99127.16;7218607;40;20346;31
2023/12/14 10:25:32;;;;;;;7.60;5.20;;;;;;;8.99;95.11;99129.84;7180836;40;20253;31
2023/12/14 10:31:05;;;;;;;7.20;5.77;;;;;;;9.00;94.75;99135.03;7195082;40;20278;31
2023/12/14 10:36:39;;;;;;;8.43;5.78;;;;;;;9.05;95.04;99137.25;7147034;40;20317;31
2023/12/14 10:42:16;;;;;;;6.00;5.00;;;;;;;9.07;94.49;99153.25;7103766;41;20240;31
2023/12/14 10:47:51;;;;;;;7.60;4.80;;;;;;;9.13;94.55;99155.31;7111133;41;20262;31
2023/12/14 10:53:23;;;;;;;8.05;4.40;;;;;;;9.11;94.09;99163.53;7121971;41;20279;31
2023/12/14 11:03:59;;;;;;;6.10;4.50;;;;;;;9.17;94.52;99164.75;7110006;41;20315;31
2023/12/14 11:09:33;;;;;;;4.40;3.60;;;;;;;9.18;93.57;99178.00;7147956;40;20281;31
2023/12/14 11:14:53;;;;;;;4.20;3.80;;;;;;;9.21;93.97;99183.09;7183938;40;20309;31
2023/12/14 11:20:40;;;;;;;5.37;3.70;;;;;;;9.16;93.88;99188.09;7219726;40;20324;31
2023/12/14 11:26:15;;;;;;;6.18;4.25;;;;;;;9.19;94.46;99200.37;7189556;40;21458;31
2023/12/14 11:31:50;;;;;;;6.50;3.55;;;;;;;9.23;94.48;99201.75;7195432;40;20253;31
2023/12/14 11:37:27;;;;;;;5.70;3.70;;;;;;;9.26;94.44;99210.31;7169031;40;20397;31
2023/12/14 11:42:49;;;;;;;4.60;4.00;;;;;;;9.30;94.37;99227.84;7180663;40;20405;31
2023/12/14 11:48:21;;;;;;;6.53;3.70;;;;;;;9.28;94.19;99229.84;7219764;40;20240;31
2023/12/14 11:53:58;;;;;;;4.53;3.60;;;;;;;9.23;94.01;99234.84;7242850;40;20237;31
2023/12/14 11:59:33;;;;;;;6.00;3.83;;;;;;;9.29;94.36;99230.69;7226778;40;20256;31
2023/12/14 12:05:13;;;;;;;4.27;3.60;;;;;;;9.34;93.78;99236.47;7158673;40;20251;31
2023/12/14 12:10:46;;;;;;;5.25;4.10;;;;;;;9.39;93.46;99236.84;7121310;40;20352;31
2023/12/14 12:16:06;;;;;;;5.30;3.60;;;;;;;9.39;92.96;99237.66;7140847;40;20482;31
2023/12/14 12:21:25;;;;;;;4.50;3.70;;;;;;;9.42;92.72;99241.88;7209563;40;20244;31
2023/12/14 12:27:01;;;;;;;4.43;3.47;;;;;;;9.38;92.67;99245.91;7222277;40;20505;31
2023/12/14 12:32:22;;;;;;;4.05;3.65;;;;;;;9.44;93.27;99250.62;7213611;40;20233;31
2023/12/14 12:37:57;;;;;;;4.00;3.30;;;;;;;9.46;92.34;99237.88;7197424;40;20407;31
2023/12/14 12:43:33;;;;;;;4.37;3.00;;;;;;;9.44;91.60;99239.87;7179913;40;20709;31
2023/12/14 12:49:05;;;;;;;6.05;4.15;;;;;;;9.43;90.09;99243.59;7146909;40;20274;31
2023/12/14 12:54:40;;;;;;;3.40;3.03;;;;;;;9.47;91.51;99251.19;7142007;40;20405;31
2023/12/14 13:00:15;;;;;;;9.87;7.10;;;;;;;9.46;90.53;99267.47;7138123;40;20243;31
2023/12/14 13:05:49;;;;;;;3.70;3.03;;;;;;;9.42;90.99;99268.78;7159802;40;20301;31
2023/12/14 13:11:25;;;;;;;4.15;2.90;;;;;;;9.50;91.27;99275.06;7142478;40;20239;31
2023/12/14 13:17:00;;;;;;;4.20;2.60;;;;;;;9.55;91.39;99279.13;7134575;40;20394;31
2023/12/14 13:22:19;;;;;;;2.90;2.60;;;;;;;9.58;91.24;99290.41;7130729;40;20448;31
2023/12/14 13:27:50;;;;;;;4.53;2.73;;;;;;;9.56;90.89;99303.19;7166832;40;20255;31
2023/12/14 13:33:26;;;;;;;2.60;2.20;;;;;;;9.57;90.67;99306.69;7198847;40;20336;31
2023/12/14 13:39:01;;;;;;;4.05;2.95;;;;;;;9.58;90.43;99305.72;7164950;40;20265;31
2023/12/14 13:44:21;;;;;;;4.00;2.85;;;;;;;9.58;90.56;99314.63;7200733;40;20400;31
2023/12/14 13:49:57;;;;;;;3.25;2.95;;;;;;;9.58;90.19;99311.94;7227568;40;20349;31
2023/12/14 13:55:17;;;;;;;3.60;3.00;;;;;;;9.63;90.21;99328.47;7158296;40;20258;31
2023/12/14 14:00:52;;;;;;;3.70;3.10;;;;;;;9.61;90.50;99338.53;7121318;40;20274;31
2023/12/14 14:06:26;;;;;;;4.28;3.28;;;;;;;9.58;90.37;99346.06;7158033;40;20254;31
2023/12/14 14:11:48;;;;;;;5.10;3.50;;;;;;;9.54;90.51;99363.53;7150346;40;20225;31
2023/12/14 14:17:07;;;;;;;4.80;3.80;;;;;;;9.55;91.26;99374.16;7213355;40;20383;31
2023/12/14 14:22:40;;;;;;;4.80;3.25;;;;;;;9.57;91.26;99384.75;7215341;40;20432;31
2023/12/14 14:28:15;;;;;;;4.90;3.70;;;;;;;9.54;91.74;99396.66;7186943;40;20273;31
2023/12/14 14:33:35;;;;;;;6.07;3.95;;;;;;;9.53;92.00;99413.81;6963275;40;21362;31
2023/12/14 14:39:12;;;;;;;5.45;3.60;;;;;;;9.42;92.19;99420.28;7172197;40;20249;31
2023/12/14 14:44:33;;;;;;;6.55;3.35;;;;;;;9.44;93.30;99430.88;7181314;40;20389;31
2023/12/14 14:50:09;;;;;;;4.77;3.57;;;;;;;9.45;92.87;99440.62;7172842;40;20737;31
2023/12/14 14:55:46;;;;;;;4.80;3.25;;;;;;;9.44;92.68;99447.88;7178428;40;20263;31
2023/12/14 15:01:06;;;;;;;3.70;3.03;;;;;;;9.43;92.63;99459.63;7174440;40;20232;31
2023/12/14 15:06:39;;;;;;;5.30;3.70;;;;;;;9.38;92.80;99461.09;7180576;40;21331;31
2023/12/14 15:12:16;;;;;;;4.85;3.25;;;;;;;9.31;93.27;99471.59;7162222;40;20341;31
2023/12/14 15:17:52;;;;;;;4.23;3.47;;;;;;;9.29;92.80;99480.84;7147820;40;20245;31
2023/12/14 15:23:24;;;;;;;5.45;3.40;;;;;;;9.25;93.04;99498.28;7147688;40;20246;31
2023/12/14 15:29:01;;;;;;;4.25;3.50;;;;;;;9.01;92.94;99518.50;7196813;40;20265;31
2023/12/14 15:34:22;;;;;;;6.47;3.97;;;;;;;9.00;93.83;99532.06;7181054;40;20380;31
2023/12/14 15:39:58;;;;;;;4.20;3.10;;;;;;;8.89;93.19;99546.56;7203389;40;20316;31
2023/12/14 15:45:35;;;;;;;2.75;1.90;;;;;;;8.85;92.33;99557.75;7184776;40;20254;31
2023/12/14 15:50:55;;;;;;;2.45;1.40;;;;;;;8.70;90.73;99570.81;7200834;40;20381;31
2023/12/14 15:56:15;;;;;;;1.60;1.50;;;;;;;8.70;90.60;99584.25;7180585;40;20332;31
2023/12/14 16:01:52;;;;;;;1.40;1.30;;;;;;;8.64;90.41;99579.47;7185450;40;20380;31
2023/12/14 16:07:13;;;;;;;2.40;1.85;;;;;;;8.63;90.50;99599.25;7194069;40;20609;31
2023/12/14 16:12:34;;;;;;;4.50;1.25;;;;;;;8.61;91.15;99603.91;7219786;40;20345;31
2023/12/14 16:18:11;;;;;;;1.90;1.20;;;;;;;8.60;90.14;99608.44;7207108;40;20379;31
2023/12/14 16:23:31;;;;;;;1.97;1.40;;;;;;;8.52;89.98;99618.22;7212557;40;20241;31
2023/12/14 16:29:06;;;;;;;1.85;1.40;;;;;;;8.45;90.58;99612.56;7252706;39;20256;31
2023/12/14 16:34:42;;;;;;;2.00;1.73;;;;;;;8.45;90.92;99614.41;7259480;40;20241;31
2023/12/14 16:40:04;;;;;;;2.00;1.80;;;;;;;8.41;90.98;99639.88;7252972;40;20319;31
2023/12/14 16:45:24;;;;;;;2.00;1.80;;;;;;;8.46;90.91;99654.56;7298642;39;20401;31
2023/12/14 16:51:01;;;;;;;2.60;1.60;;;;;;;8.43;91.53;99659.34;7253930;40;21371;31
2023/12/14 16:56:42;;;;;;;6.30;4.80;;;;;;;8.50;91.15;99672.09;7212808;40;20258;31
2023/12/14 17:01:58;;;;;;;4.00;3.23;;;;;;;8.56;91.60;99673.34;7229718;40;20235;31
2023/12/14 17:07:34;;;;;;;3.40;2.60;;;;;;;8.50;91.87;99687.38;7257049;40;20241;31
2023/12/14 17:12:55;;;;;;;3.20;2.90;;;;;;;8.50;91.92;99711.53;7175988;40;20622;31
2023/12/14 17:18:30;;;;;;;8.00;5.65;;;;;;;8.50;92.12;99715.09;7194064;40;20321;31
2023/12/14 17:24:09;;;;;;;15.53;11.57;;;;;;;8.49;92.06;99732.19;7225253;40;21694;31
2023/12/14 17:29:42;;;;;;;13.33;8.77;;;;;;;8.52;92.63;99745.31;7214922;40;20579;31
2023/12/14 17:35:03;;;;;;;11.07;7.77;;;;;;;8.49;93.29;99753.66;7237400;40;20256;31
2023/12/14 17:40:39;;;;;;;9.00;6.75;;;;;;;8.48;92.58;99762.72;7248901;40;20348;31
2023/12/14 17:46:11;;;;;;;4.63;3.53;;;;;;;8.50;92.81;99770.66;7175135;40;20402;31
2023/12/14 17:56:50;;;;;;;2.50;2.00;;;;;;;8.41;91.92;99788.44;7179785;40;20258;31
2023/12/14 18:02:26;;;;;;;2.95;2.05;;;;;;;8.39;91.38;99808.34;7269614;39;20270;31
2023/12/14 18:07:50;;;;;;;2.00;1.70;;;;;;;8.16;90.62;99807.72;7286590;39;20409;31
2023/12/14 18:13:21;;;;;;;1.60;1.50;;;;;;;8.01;90.37;99807.22;7237800;40;20269;31
2023/12/14 18:18:42;;;;;;;1.80;1.70;;;;;;;7.94;91.00;99830.22;7237659;40;20282;31
2023/12/14 18:23:59;;;;;;;4.25;1.60;;;;;;;7.89;89.19;99829.78;7188736;40;20409;31
2023/12/14 18:34:40;;;;;;;1.35;1.20;;;;;;;7.89;88.51;99853.94;7233023;40;20265;31
2023/12/14 18:40:11;;;;;;;1.30;1.20;;;;;;;7.75;86.89;99870.38;7297662;39;20252;31
2023/12/14 18:45:47;;;;;;;1.50;1.30;;;;;;;7.75;87.02;99878.44;7216835;40;20708;31
2023/12/14 18:51:23;;;;;;;1.50;1.00;;;;;;;7.65;85.94;99886.41;7139379;40;20254;31
2023/12/14 18:56:44;;;;;;;3.25;1.40;;;;;;;7.67;86.09;99895.19;7099304;40;20236;31
2023/12/14 19:02:24;;;;;;;1.50;1.20;;;;;;;7.67;87.13;99897.88;7163564;40;20281;31
2023/12/14 19:07:54;;;;;;;1.50;1.30;;;;;;;7.75;86.99;99902.59;7155545;40;20232;31
2023/12/14 19:13:29;;;;;;;2.45;1.30;;;;;;;7.81;87.60;99920.81;7175808;40;20377;31
2023/12/14 19:19:04;;;;;;;2.40;1.40;;;;;;;7.84;87.24;99925.94;7196625;40;20388;31
2023/12/14 19:24:37;;;;;;;1.93;1.63;;;;;;;7.77;86.89;99937.34;7199013;40;20259;31
2023/12/14 19:30:12;;;;;;;1.80;1.60;;;;;;;7.65;85.44;99945.44;7140869;40;20408;31
2023/12/14 19:35:34;;;;;;;1.90;1.70;;;;;;;7.65;85.44;99952.63;7158221;40;20246;31
2023/12/14 19:41:09;;;;;;;2.47;2.10;;;;;;;7.60;85.49;99957.53;7182466;40;20275;31
2023/12/14 19:46:30;;;;;;;2.37;1.90;;;;;;;7.54;85.34;99977.69;7226916;40;20281;31
2023/12/14 19:51:50;;;;;;;2.95;2.40;;;;;;;7.65;86.71;99988.38;7277245;39;20244;31
2023/12/14 19:57:26;;;;;;;3.20;2.50;;;;;;;7.63;85.35;99994.84;7280647;39;20394;31
2023/12/14 20:02:48;;;;;;;3.30;2.80;;;;;;;7.64;84.54;99999.22;7245698;40;20261;31
2023/12/14 20:08:22;;;;;;;2.50;2.10;;;;;;;7.56;83.90;99999.00;7232511;40;20390;31
2023/12/14 20:13:58;;;;;;;2.93;2.40;;;;;;;7.51;83.43;100011.94;7244184;40;20317;31
2023/12/14 20:19:16;;;;;;;2.70;2.50;;;;;;;7.55;85.69;100032.16;7254398;40;20240;31
2023/12/14 20:24:51;;;;;;;3.30;2.50;;;;;;;7.55;84.07;100040.22;7276869;40;20248;31
2023/12/14 20:30:27;;;;;;;3.65;2.60;;;;;;;7.36;82.44;100054.31;7228619;40;20400;31
2023/12/14 20:36:03;;;;;;;3.70;2.70;;;;;;;7.40;85.25;100063.81;7189298;40;20433;31
2023/12/14 20:41:38;;;;;;;2.60;2.30;;;;;;;7.28;80.03;100070.16;7150664;40;20258;31
2023/12/14 20:47:14;;;;;;;3.40;2.80;;;;;;;7.22;82.61;100081.37;7149145;40;20246;31
2023/12/14 20:52:49;;;;;;;3.93;3.13;;;;;;;7.32;83.49;100089.53;7179547;40;20310;31
2023/12/14 20:58:24;;;;;;;4.90;3.77;;;;;;;7.26;81.84;100104.28;7158660;40;20247;31
2023/12/14 21:04:00;;;;;;;3.90;3.30;;;;;;;7.27;82.93;100105.13;7134477;40;20271;31
2023/12/14 21:14:36;;;;;;;5.55;3.55;;;;;;;7.35;83.56;100125.00;7009446;40;21075;31
2023/12/14 21:25:18;;;;;;;3.77;3.10;;;;;;;7.43;84.05;100137.78;7219449;40;20265;31
2023/12/14 21:35:41;;;;;;;3.47;3.10;;;;;;;7.48;83.50;100157.91;7240564;40;20296;31
2023/12/14 21:41:15;;;;;;;5.35;3.05;;;;;;;7.48;83.96;100149.84;7303399;39;20341;31
2023/12/14 21:46:35;;;;;;;2.95;2.60;;;;;;;7.46;83.41;100172.44;7272175;40;20385;31
2023/12/14 21:51:56;;;;;;;3.25;2.95;;;;;;;7.39;83.06;100165.81;7242082;40;20319;31
2023/12/14 21:57:32;;;;;;;3.03;2.73;;;;;;;7.34;83.60;100176.06;7221177;40;20405;31
2023/12/14 22:02:52;;;;;;;4.40;2.90;;;;;;;7.45;83.52;100189.50;7210709;40;20273;31
2023/12/14 22:08:13;;;;;;;3.67;2.90;;;;;;;7.45;83.55;100184.97;7245147;40;20240;31
2023/12/14 22:13:48;;;;;;;3.73;3.20;;;;;;;7.44;84.20;100193.13;7231079;40;20246;31
2023/12/14 22:19:23;;;;;;;3.60;2.80;;;;;;;7.48;84.31;100186.56;7190503;40;20264;31
2023/12/14 22:24:55;;;;;;;3.77;2.90;;;;;;;7.47;83.54;100200.94;7177754;40;20222;31
2023/12/14 22:30:31;;;;;;;4.35;3.10;;;;;;;7.45;83.18;100208.25;7124662;40;20271;31
2023/12/14 22:36:06;;;;;;;4.00;3.00;;;;;;;7.43;83.39;100223.59;7142562;40;20381;31
2023/12/14 22:41:41;;;;;;;7.43;4.10;;;;;;;7.42;84.25;100232.63;7200089;40;20404;31
2023/12/14 22:47:17;;;;;;;4.65;3.45;;;;;;;7.45;84.46;100243.13;7177167;40;20243;31
2023/12/14 22:52:37;;;;;;;4.20;3.17;;;;;;;7.46;84.71;100258.25;7227153;40;20549;31
2023/12/14 22:57:58;;;;;;;4.35;3.55;;;;;;;7.44;84.09;100262.88;7208963;40;20250;31
2023/12/14 23:03:35;;;;;;;5.25;3.30;;;;;;;7.44;84.08;100281.66;7270174;39;20271;31
2023/12/14 23:14:15;;;;;;;4.17;3.17;;;;;;;7.29;83.55;100296.22;7283133;39;20328;31
2023/12/14 23:19:46;;;;;;;5.30;2.93;;;;;;;7.27;83.33;100292.84;7246243;40;20313;31
2023/12/14 23:25:22;;;;;;;3.20;2.80;;;;;;;7.20;83.37;100317.44;7213968;40;21324;31
2023/12/14 23:36:02;;;;;;;4.10;3.13;;;;;;;7.28;83.72;100322.22;7204202;40;20474;31
2023/12/14 23:46:26;;;;;;;3.30;3.00;;;;;;;7.37;83.24;100326.84;7236147;40;20433;31
2023/12/14 23:51:57;;;;;;;3.30;2.60;;;;;;;7.23;83.63;100343.16;7202789;40;20246;31
2023/12/14 23:57:32;;;;;;;2.87;2.57;;;;;;;7.10;84.00;100350.44;7166136;40;20258;31
